Home > Products > Valid Products > TAF

000
FTUS41 KPHI 231400 AAA
TAFPHL
TAF AMD
KPHL 231439Z 2315/2418 21008KT P6SM SCT100 BKN200
     FM232100 17008KT P6SM SCT050 BKN100
     FM240000 16006KT P6SM SCT025 OVC050
     FM240400 15006KT 5SM -RA BR OVC020 WS020/18040KT
     FM240600 12010KT 2SM RA BR BKN005 OVC015 WS020/17050KT
     FM240800 16014G24KT 4SM -RA BR OVC005 WS020/19050KT
     FM241400 20014G24KT P6SM -SHRA OVC010
     FM241700 21016G28KT P6SM SCT020 BKN050=



000
FTUS41 KPHI 231100
TAFPNE
TAF
KPNE 231135Z 2312/2412 22005KT P6SM SCT100
     FM240100 16005KT P6SM OVC050
     FM240300 12006KT 5SM -RA BR OVC020
     FM240600 12010KT 4SM -RA BR OVC010
     FM240800 15015G25KT 4SM -RA BR OVC007 WS020/16050KT=



000
FTUS41 KPHI 231100
TAFPHL
TAF
KPHL 231135Z 2312/2418 20006KT P6SM SCT100
     FM240000 16006KT P6SM OVC050
     FM240300 15006KT 5SM -RA BR OVC020
     FM240600 12010KT 4SM -RA BR OVC010
     FM240800 15015G26KT 4SM -RA BR OVC007 WS020/16050KT=



000
FTUS41 KPHI 231100
TAFILG
TAF
KILG 231135Z 2312/2412 19006KT P6SM SCT100
     FM240000 16006KT P6SM OVC050
     FM240200 15006KT 5SM -RA BR OVC030
     FM240500 12010KT 4SM -RA BR OVC010
     FM240700 15015G26KT 4SM -RA BR OVC007 WS020/16050KT=



000
FTUS41 KPHI 231100
TAFACY
TAF
KACY 231135Z 2312/2412 21008KT P6SM SCT100
     FM232100 16005KT P6SM SCT040
     FM240200 15007KT 4SM -RA BR OVC030
     FM240500 14010KT 4SM -RA BR OVC010
     FM240700 16015G26KT 4SM -RA BR OVC007 WS020/16050KT=



000
FTUS41 KPHI 231100
TAFRDG
TAF
KRDG 231135Z 2312/2412 00000KT P6SM BKN080
     FM231400 17003KT P6SM SCT100
     FM240100 13004KT P6SM OVC050
     FM240300 14005KT 5SM -RA BR OVC015
     FM240600 11006KT 4SM -RA BR OVC007
     FM240800 13010KT 3SM -RA BR OVC003 WS020/16045KT=



000
FTUS41 KPHI 231100
TAFTTN
TAF
KTTN 231135Z 2312/2412 23005KT P6SM SCT100
     FM240100 16005KT P6SM OVC050
     FM240300 15006KT 5SM -RA BR OVC020
     FM240600 15010KT 4SM -RA BR OVC015
     FM240800 15015G25KT 4SM -RA BR OVC007 WS020/16050KT=



000
FTUS41 KPHI 231100
TAFMIV
TAF
KMIV 231135Z 2312/2412 21006KT P6SM SCT100
     FM232100 16005KT P6SM SCT040
     FM240200 12005KT 4SM -RA BR OVC030
     FM240500 14010KT 4SM -RA BR OVC010
     FM240700 16015G26KT 4SM -RA BR OVC007 WS020/16050KT=



000
FTUS41 KPHI 231100
TAFABE
TAF
KABE 231135Z 2312/2412 00000KT P6SM OVC100
     FM231400 21005KT P6SM SCT100
     FM240200 11004KT P6SM OVC025
     FM240300 14005KT 5SM -RA BR OVC015
     FM240600 09007KT 4SM -RA BR OVC007
     FM240800 12012KT 4SM -RA BR OVC003 WS020/16045KT=



000
FTUS41 KPHI 230800 AAA
TAFPHL
TAF AMD
KPHL 230859Z 2309/2412 19010KT P6SM SCT120 OVC250
     FM231200 20006KT P6SM SCT100
     FM240000 16006KT P6SM OVC050
     FM240300 15006KT 5SM -RA BR OVC020
     FM240600 14007KT 5SM -RA BR OVC007 WS020/16045KT=



000
FTUS41 KPHI 230500
TAFILG
TAF
KILG 230540Z 2306/2406 20006KT P6SM OVC100
     FM231200 19008KT P6SM SCT100
     FM240000 16006KT P6SM OVC050
     FM240300 15006KT 5SM -RA BR OVC020=



000
FTUS41 KPHI 230500
TAFPHL
TAF
KPHL 230540Z 2306/2412 23010KT P6SM OVC110
     FM231200 20006KT P6SM SCT100
     FM240000 16006KT P6SM OVC050
     FM240300 15006KT 5SM -RA BR OVC020
     FM240600 14007KT 5SM -RA BR OVC007 WS020/16045KT=



000
FTUS41 KPHI 230500
TAFRDG
TAF
KRDG 230540Z 2306/2406 17003KT P6SM SCT110
     FM231400 17003KT P6SM SCT100
     FM232300 13003KT P6SM OVC050
     FM240100 13004KT P6SM OVC025
     FM240300 14005KT 5SM -RA BR OVC015=



000
FTUS41 KPHI 230500
TAFPNE
TAF
KPNE 230540Z 2306/2406 23006KT P6SM OVC110
     FM231200 21008KT P6SM SCT100
     FM240100 16005KT P6SM OVC050
     FM240300 15006KT 5SM -RA BR OVC020=



000
FTUS41 KPHI 230500
TAFMIV
TAF
KMIV 230540Z 2306/2406 23004KT P6SM OVC110
     FM231200 21008KT P6SM SCT100
     FM232100 16005KT P6SM SCT040
     FM240200 12005KT 4SM -RA BR OVC020
     FM240400 12008G15KT 4SM -RA BR OVC007=



000
FTUS41 KPHI 230500
TAFACY
TAF
KACY 230540Z 2306/2406 22008KT P6SM OVC110
     FM231200 21008KT P6SM SCT100
     FM232100 16005KT P6SM SCT040
     FM240200 15007KT 4SM -RA BR OVC015
     FM240400 15010G20KT 5SM -RA BR OVC007=



000
FTUS41 KPHI 230500
TAFABE
TAF
KABE 230540Z 2306/2406 VRB03KT P6SM SCT110
     FM231400 22005KT P6SM SCT100
     FM232300 13003KT P6SM OVC050
     FM240100 13004KT P6SM OVC025
     FM240300 14005KT 5SM -RA BR OVC015=



000
FTUS41 KPHI 230500
TAFTTN
TAF
KTTN 230540Z 2306/2406 23006KT P6SM OVC110
     FM231200 22007KT P6SM SCT100
     FM240100 16005KT P6SM OVC050
     FM240300 15006KT 5SM -RA BR OVC020=



000
FTUS41 KPHI 222300
TAFABE
TAF
KABE 222339Z 2300/2324 23005KT P6SM BKN040
     FM230800 23003KT P6SM BKN100
     FM231400 22005KT P6SM SCT100=



000
FTUS41 KPHI 222300
TAFACY
TAF
KACY 222339Z 2300/2324 22006KT P6SM BKN080
     FM231200 21008KT P6SM SCT100
     FM232100 16005KT P6SM SCT040=



000
FTUS41 KPHI 222300
TAFRDG
TAF
KRDG 222339Z 2300/2324 19003KT P6SM BKN040
     FM230800 VRB02KT P6SM BKN100
     FM231400 17003KT P6SM SCT100=



000
FTUS41 KPHI 222300
TAFMIV
TAF
KMIV 222339Z 2300/2324 21004KT P6SM BKN080
     FM231200 21008KT P6SM SCT100
     FM232100 16005KT P6SM SCT040=



000
FTUS41 KPHI 222300
TAFPNE
TAF
KPNE 222339Z 2300/2324 23006KT P6SM BKN060
     FM231200 21008KT P6SM SCT100=



000
FTUS41 KPHI 222300
TAFPHL
TAF
KPHL 222339Z 2300/2406 21008KT P6SM BKN080
     FM231200 20006KT P6SM SCT100
     FM240000 16006KT P6SM OVC050
     FM240300 13006KT 6SM -RA SCT020 OVC035=



000
FTUS41 KPHI 222300
TAFILG
TAF
KILG 222339Z 2300/2324 23005KT P6SM BKN080
     FM231200 19008KT P6SM SCT100=



000
FTUS41 KPHI 222300
TAFTTN
TAF
KTTN 222339Z 2300/2324 23006KT P6SM BKN060
     FM231200 22007KT P6SM SCT100=



000
FTUS41 KPHI 222000 AAB
TAFPHL
TAF AMD
KPHL 222040Z 2221/2324 23012KT P6SM BKN070
     FM222300 21008KT P6SM BKN080
     FM231000 22006KT P6SM SCT100
     FM232100 19008KT P6SM BKN100=



000
FTUS41 KPHI 222000 AAB
TAFABE
TAF AMD
KABE 222021Z 2220/2318 23010KT P6SM BKN050
     FM230000 VRB03KT P6SM BKN060
     FM231000 22005KT P6SM SCT100=



000
FTUS41 KPHI 222000 AAA
TAFRDG
TAF AMD
KRDG 222020Z 2220/2318 20008KT P6SM BKN050
     FM230000 VRB03KT P6SM BKN060
     FM231000 20003KT P6SM SCT100=



000
FTUS41 KPHI 221900 AAA
TAFMIV
TAF AMD
KMIV 221920Z 2219/2318 23010G16KT P6SM FEW080
     FM222200 23004KT P6SM BKN100
     FM231000 20006KT P6SM SCT100=



000
FTUS41 KPHI 221900 AAA
TAFILG
TAF AMD
KILG 221920Z 2219/2318 23012G18KT P6SM BKN080
     FM222200 20008KT P6SM BKN100
     FM231000 20006KT P6SM SCT100=



000
FTUS41 KPHI 221900 AAA
TAFPNE
TAF AMD
KPNE 221919Z 2219/2318 23012G20KT P6SM BKN080
     FM222200 20008KT P6SM BKN080
     FM230100 22006KT P6SM BKN080
     FM231000 22006KT P6SM SCT100=



000
FTUS41 KPHI 221900 AAA
TAFPHL
TAF AMD
KPHL 221919Z 2219/2324 22012G20KT P6SM BKN080
     FM222200 21008KT P6SM BKN080
     FM231000 22006KT P6SM SCT100
     FM232100 19008KT P6SM BKN100=



000
FTUS41 KPHI 221900 AAA
TAFABE
TAF AMD
KABE 221918Z 2219/2318 23012KT P6SM BKN080
     FM222000 20008KT P6SM BKN080
     FM230000 VRB03KT P6SM BKN060
     FM231000 22005KT P6SM SCT100=



000
FTUS41 KPHI 221900 AAA
TAFTTN
TAF AMD
KTTN 221918Z 2219/2318 23012KT P6SM BKN080
     FM230000 23006KT P6SM BKN080
     FM231000 22006KT P6SM SCT100=



000
FTUS41 KPHI 221700 CCA
TAFPHL
TAF COR
KPHL 221722Z 2218/2324 22012G20KT P6SM SCT100
     FM222200 21008KT P6SM BKN080
     FM231000 22006KT P6SM SCT100
     FM232100 19008KT P6SM BKN100=



000
FTUS41 KPHI 221700
TAFACY
TAF
KACY 221721Z 2218/2318 24010G18KT P6SM SCT250
     FM222200 20007KT P6SM SCT100=



000
FTUS41 KPHI 221700
TAFPNE
TAF
KPNE 221721Z 2218/2318 23012G20KT P6SM SCT100
     FM222200 20008KT P6SM BKN080
     FM230100 22006KT P6SM BKN080
     FM231000 22006KT P6SM SCT100=



000
FTUS41 KPHI 221700
TAFABE
TAF
KABE 221721Z 2218/2318 23012KT P6SM SCT080
     FM222000 20008KT P6SM BKN080
     FM230000 VRB03KT P6SM BKN060
     FM231000 22005KT P6SM SCT100=



000
FTUS41 KPHI 221700
TAFMIV
TAF
KMIV 221721Z 2218/2318 22010G16KT P6SM SCT250
     FM222200 23004KT P6SM SCT100
     FM231000 20006KT P6SM SCT100=



000
FTUS41 KPHI 221700
TAFRDG
TAF
KRDG 221721Z 2218/2318 23012KT P6SM BKN080
     FM222300 VRB03KT P6SM BKN060
     FM231000 20003KT P6SM SCT100=



000
FTUS41 KPHI 221700
TAFTTN
TAF
KTTN 221721Z 2218/2318 23010G18KT P6SM SCT100
     FM222200 20008KT P6SM BKN100
     FM230100 23006KT P6SM BKN080
     FM231000 22006KT P6SM SCT100=



000
FTUS41 KPHI 221700
TAFPHL
TAF
KPHL 221721Z 2218/2324 22012G20KT P6SM SCT100
     FM222200 20008KT P6SM BKN080
     FM230100 22006KT P6SM BKN080
     FM231000 22006KT P6SM SCT100
     FM232100 19008KT P6SM BKN100=



000
FTUS41 KPHI 221700
TAFILG
TAF
KILG 221721Z 2218/2318 23012G18KT P6SM SCT150
     FM222300 20008KT P6SM BKN100
     FM231000 20006KT P6SM SCT100=



000
FTUS41 KPHI 221600 AAA
TAFACY
TAF AMD
KACY 221625Z 2216/2312 24010KT P6SM SCT250
     FM221800 22012G20KT P6SM SCT200
     FM222200 21008KT P6SM FEW080=



000
FTUS41 KPHI 221600 AAA
TAFMIV
TAF AMD
KMIV 221624Z 2216/2312 22010KT P6SM SCT250
     FM221800 22012G20KT P6SM SCT200
     FM222200 21005KT P6SM FEW080=



000
FTUS41 KPHI 221600 AAA
TAFTTN
TAF AMD
KTTN 221623Z 2216/2312 23012G20KT P6SM SCT250
     FM222200 24005KT P6SM SCT100=



000
FTUS41 KPHI 221600 AAA
TAFILG
TAF AMD
KILG 221623Z 2216/2312 23010KT P6SM SCT250
     FM221800 22012G20KT P6SM SCT200
     FM222200 20008KT P6SM SCT100=



000
FTUS41 KPHI 221600 AAA
TAFABE
TAF AMD
KABE 221622Z 2216/2312 23010KT P6SM SCT250
     FM221800 22012G20KT P6SM SCT200
     FM222200 VRB03KT P6SM BKN060=



000
FTUS41 KPHI 221600 AAA
TAFRDG
TAF AMD
KRDG 221621Z 2216/2312 23008KT P6SM SCT250
     FM221800 22012G20KT P6SM SCT200
     FM222200 18005KT P6SM BKN050=



000
FTUS41 KPHI 221600 AAA
TAFPNE
TAF AMD
KPNE 221612Z 2216/2312 23012G20KT P6SM SCT250
     FM222200 22005KT P6SM SCT100=



000
FTUS41 KPHI 221400 AAA
TAFPHL
TAF AMD
KPHL 221443Z 2215/2318 22008KT P6SM SCT200
     FM221800 23012G20KT P6SM SCT200
     FM222200 20008KT P6SM SCT100 BKN200
     FM231200 19006KT P6SM BKN150=



000
FTUS41 KPHI 221100
TAFACY
TAF
KACY 221120Z 2212/2312 VRB02KT P6SM SKC
     FM221400 22011KT P6SM FEW200
     FM230000 21008KT P6SM FEW080=



000
FTUS41 KPHI 221100
TAFMIV
TAF
KMIV 221120Z 2212/2312 VRB02KT P6SM SKC
     FM221400 22009KT P6SM FEW200
     FM230000 21003KT P6SM FEW080=



000
FTUS41 KPHI 221100
TAFRDG
TAF
KRDG 221120Z 2212/2312 23002KT P6SM SKC
     FM221500 22009KT P6SM SCT200
     FM222200 18003KT P6SM BKN050=



000
FTUS41 KPHI 221100
TAFILG
TAF
KILG 221120Z 2212/2312 VRB03KT P6SM SKC
     FM221400 22011KT P6SM SCT200
     FM222300 20006KT P6SM SCT070=



000
FTUS41 KPHI 221100
TAFPHL
TAF
KPHL 221120Z 2212/2318 24004KT P6SM SKC
     FM221400 23011KT P6SM SCT200
     FM230000 22008KT P6SM SCT070
     FM231200 19006KT P6SM BKN150=



000
FTUS41 KPHI 221100
TAFTTN
TAF
KTTN 221120Z 2212/2312 23003KT P6SM SKC
     FM221500 25011KT P6SM SCT200
     FM222300 24005KT P6SM SCT060=



000
FTUS41 KPHI 221100
TAFABE
TAF
KABE 221120Z 2212/2312 VRB04KT P6SM SKC
     FM221500 22011KT P6SM SCT200
     FM222200 VRB03KT P6SM FEW050=



000
FTUS41 KPHI 221100
TAFPNE
TAF
KPNE 221120Z 2212/2312 24003KT P6SM SKC
     FM221500 23011KT P6SM SCT200
     FM230000 22005KT P6SM SCT060=



000
FTUS41 KPHI 220800 AAA
TAFPHL
TAF AMD
KPHL 220837Z 2209/2312 24004KT P6SM SKC
     FM221400 23011KT P6SM SCT200
     FM230000 22008KT P6SM SCT060=



000
FTUS41 KPHI 220500
TAFTTN
TAF
KTTN 220520Z 2206/2306 29003KT P6SM SKC
     FM221500 25011KT P6SM SCT200
     FM230000 24005KT P6SM FEW060=



000
FTUS41 KPHI 220500
TAFACY
TAF
KACY 220520Z 2206/2306 VRB02KT P6SM SKC
     FM221400 22011KT P6SM FEW200
     FM230000 21008KT P6SM FEW070=



000
FTUS41 KPHI 220500
TAFPHL
TAF
KPHL 220520Z 2206/2312 29004KT P6SM SKC
     FM221400 23011KT P6SM SCT200
     FM230000 22008KT P6SM SCT060=



000
FTUS41 KPHI 220500
TAFPNE
TAF
KPNE 220520Z 2206/2306 27003KT P6SM SKC
     FM221500 23011KT P6SM SCT200
     FM230000 22005KT P6SM FEW060=



000
FTUS41 KPHI 220500
TAFABE
TAF
KABE 220520Z 2206/2306 VRB04KT P6SM SKC
     FM221500 22011KT P6SM FEW060
     FM230000 20003KT P6SM FEW050=



000
FTUS41 KPHI 220500
TAFRDG
TAF
KRDG 220520Z 2206/2306 24002KT P6SM SKC
     FM221500 22009KT P6SM SCT060
     FM230000 18003KT P6SM BKN050=



000
FTUS41 KPHI 220500
TAFMIV
TAF
KMIV 220520Z 2206/2306 VRB02KT P6SM SKC
     FM221400 22009KT P6SM FEW200
     FM230000 21003KT P6SM FEW070=



000
FTUS41 KPHI 220500
TAFILG
TAF
KILG 220520Z 2206/2306 24003KT P6SM SKC
     FM221400 22011KT P6SM SCT200
     FM230000 20006KT P6SM SCT060=



000
FTUS41 KPHI 212300
TAFRDG
TAF
KRDG 212329Z 2200/2224 28005KT P6SM SKC
     FM220400 25002KT P6SM SKC
     FM221500 22009KT P6SM SCT070=



000
FTUS41 KPHI 212300
TAFTTN
TAF
KTTN 212329Z 2200/2224 28005KT P6SM SKC
     FM220400 25003KT P6SM SKC
     FM221500 23010KT P6SM SCT070=



000
FTUS41 KPHI 212300
TAFPHL
TAF
KPHL 212329Z 2200/2306 29007KT P6SM SKC
     FM220400 25004KT P6SM SKC
     FM221500 23011KT P6SM SCT070
     FM230000 22005KT P6SM SCT070=



000
FTUS41 KPHI 212300
TAFILG
TAF
KILG 212329Z 2200/2224 28006KT P6SM SKC
     FM220400 24003KT P6SM SKC
     FM221500 22010KT P6SM SCT070=



000
FTUS41 KPHI 212300
TAFABE
TAF
KABE 212329Z 2200/2224 27005KT P6SM SKC
     FM220400 25002KT P6SM SKC
     FM221500 22009KT P6SM SCT070=



000
FTUS41 KPHI 212300
TAFMIV
TAF
KMIV 212329Z 2200/2224 29003KT P6SM SKC
     FM220400 00000KT P6SM SKC
     FM221500 22008KT P6SM SCT070=



000
FTUS41 KPHI 212300
TAFPNE
TAF
KPNE 212329Z 2200/2224 29005KT P6SM SKC
     FM220400 25003KT P6SM SKC
     FM221500 23010KT P6SM SCT070=



000
FTUS41 KPHI 212300
TAFACY
TAF
KACY 212329Z 2200/2224 28004KT P6SM SKC
     FM220400 24002KT P6SM SKC
     FM221500 22011KT P6SM SCT070=



000
FTUS41 KPHI 212100 AAA
TAFPHL
TAF AMD
KPHL 212103Z 2121/2224 30011KT P6SM SKC
     FM212200 29008KT P6SM SKC
     FM220400 25005KT P6SM SKC
     FM221400 23009KT P6SM FEW250
     FM221800 22011KT P6SM SCT250=



000
FTUS41 KPHI 211700 RRA
TAFILG
TAF
KILG 211741Z 2118/2218 31012G24KT P6SM SKC
     FM212100 29009KT P6SM SKC
     FM220200 VRB03KT P6SM SKC
     FM221400 21008KT P6SM SKC=



000
FTUS41 KPHI 211700 RRA
TAFPHL
TAF
KPHL 211741Z 2118/2224 31012G24KT P6SM SKC
     FM212200 29010KT P6SM SKC
     FM220400 25005KT P6SM SKC
     FM221400 23009KT P6SM FEW250
     FM221800 22011KT P6SM SCT250=



000
FTUS41 KPHI 211700 RRA
TAFACY
TAF
KACY 211741Z 2118/2218 30014G24KT P6SM SKC
     FM212200 29009KT P6SM SKC
     FM220200 VRB03KT P6SM SKC
     FM221500 23009KT P6SM SKC=



000
FTUS41 KPHI 211700 RRA
TAFMIV
TAF
KMIV 211741Z 2118/2218 30012G22KT P6SM SKC
     FM212100 29009KT P6SM SKC
     FM220000 VRB02KT P6SM SKC
     FM221500 22008KT P6SM SKC=



000
FTUS41 KPHI 211700 RRA
TAFRDG
TAF
KRDG 211741Z 2118/2218 30012G22KT P6SM SKC
     FM212100 29008KT P6SM SKC
     FM220100 VRB02KT P6SM SKC
     FM221500 21007KT P6SM SKC=



000
FTUS41 KPHI 211700 RRA
TAFABE
TAF
KABE 211741Z 2118/2218 30012G22KT P6SM FEW050
     FM212200 29008KT P6SM SKC
     FM220100 VRB03KT P6SM SKC
     FM221400 23008KT P6SM SKC=



000
FTUS41 KPHI 211700 RRA
TAFPNE
TAF
KPNE 211741Z 2118/2218 31012G22KT P6SM SKC
     FM212100 29010KT P6SM SKC
     FM220100 VRB03KT P6SM SKC
     FM221400 23008KT P6SM SKC=



000
FTUS41 KPHI 211700 RRA
TAFTTN
TAF
KTTN 211741Z 2118/2218 31012G20KT P6SM SKC
     FM212200 30009KT P6SM SKC
     FM220100 VRB03KT P6SM SKC
     FM221400 22008KT P6SM SKC=



000
FTUS41 KPHI 211400 AAA
TAFPHL
TAF AMD
KPHL 211442Z 2115/2218 30015G25KT P6SM SKC
     FM211900 30011G20KT P6SM SKC
     FM212200 29010KT P6SM SKC
     FM220100 VRB03KT P6SM SKC
     FM221600 22009KT P6SM SCT250=



000
FTUS41 KPHI 211100
TAFILG
TAF
KILG 211134Z 2112/2212 28010KT P6SM SKC
     FM211300 29015G25KT P6SM SKC
     FM211900 29011G18KT P6SM SKC
     FM212100 29009KT P6SM SKC
     FM220200 VRB03KT P6SM SKC=



000
FTUS41 KPHI 211100
TAFPNE
TAF
KPNE 211134Z 2112/2212 28011KT P6SM SKC
     FM211400 30014G24KT P6SM SKC
     FM211800 29011G18KT P6SM SKC
     FM212100 29010KT P6SM SKC
     FM220100 VRB03KT P6SM SKC=



000
FTUS41 KPHI 211100
TAFACY
TAF
KACY 211134Z 2112/2212 28012G20KT P6SM SKC
     FM211300 31016G26KT P6SM SKC
     FM211900 31012G19KT P6SM SKC
     FM212200 29009KT P6SM SKC
     FM220200 28005KT P6SM SKC=



000
FTUS41 KPHI 211100
TAFRDG
TAF
KRDG 211134Z 2112/2212 29008KT P6SM SKC
     FM211400 29012G23KT P6SM FEW050
     FM211800 30010G17KT P6SM SKC
     FM212100 29008KT P6SM SKC
     FM220100 VRB02KT P6SM SKC=



000
FTUS41 KPHI 211100
TAFABE
TAF
KABE 211134Z 2112/2212 28010KT P6SM SKC
     FM211300 29013G24KT P6SM FEW050
     FM211800 30010G17KT P6SM FEW050
     FM212100 29008KT P6SM SKC
     FM220100 VRB02KT P6SM SKC=



000
FTUS41 KPHI 211100
TAFMIV
TAF
KMIV 211134Z 2112/2212 30014G25KT P6SM SKC
     FM211800 30011G18KT P6SM SKC
     FM212100 29009KT P6SM SKC
     FM220000 VRB03KT P6SM SKC=



000
FTUS41 KPHI 211100
TAFTTN
TAF
KTTN 211134Z 2112/2212 29010KT P6SM SKC
     FM211300 30013G23KT P6SM SKC
     FM211800 31010G17KT P6SM SKC
     FM212100 29009KT P6SM SKC
     FM220100 VRB03KT P6SM SKC=



000
FTUS41 KPHI 211100
TAFPHL
TAF
KPHL 211134Z 2112/2218 28013KT P6SM SKC
     FM211300 29014G25KT P6SM SKC
     FM211800 30011G18KT P6SM SKC
     FM212100 29010KT P6SM SKC
     FM220100 VRB03KT P6SM SKC
     FM221600 21011KT P6SM SCT250=



000
FTUS41 KPHI 210800 AAA
TAFPHL
TAF AMD
KPHL 210858Z 2109/2212 29013G20KT P6SM SKC
     FM211300 30013G25KT P6SM SKC
     FM211800 30011G18KT P6SM SKC
     FM212100 29010KT P6SM SKC
     FM220100 VRB03KT P6SM SKC=



000
FTUS41 KPHI 210500
TAFILG
TAF
KILG 210533Z 2106/2206 32010KT P6SM SKC
     FM211300 31013G25KT P6SM SKC
     FM211900 30011G18KT P6SM SKC
     FM212100 30009KT P6SM SKC
     FM220200 VRB03KT P6SM SKC=



000
FTUS41 KPHI 210500
TAFTTN
TAF
KTTN 210533Z 2106/2206 29010KT P6SM SKC
     FM211300 30013G23KT P6SM SKC
     FM211800 31010G17KT P6SM SKC
     FM212100 29009KT P6SM SKC
     FM220100 VRB03KT P6SM SKC=



000
FTUS41 KPHI 210500
TAFABE
TAF
KABE 210533Z 2106/2206 28008KT P6SM SKC
     FM211300 29012G23KT P6SM SCT050
     FM211800 30010G17KT P6SM FEW050
     FM212100 29008KT P6SM SKC
     FM220100 VRB02KT P6SM SKC=



000
FTUS41 KPHI 210500
TAFACY
TAF
KACY 210533Z 2106/2206 31012KT P6SM SKC
     FM211300 31015G27KT P6SM SKC
     FM211800 31012G19KT P6SM SKC
     FM212200 29009KT P6SM SKC
     FM220200 28005KT P6SM SKC=



000
FTUS41 KPHI 210500
TAFPHL
TAF
KPHL 210533Z 2106/2212 30009KT P6SM SKC
      TEMPO 2108/2112 31011G21KT
     FM211200 30013G25KT P6SM SKC
     FM211800 30011G18KT P6SM SKC
     FM212100 29010KT P6SM SKC
     FM220100 VRB03KT P6SM SKC=



000
FTUS41 KPHI 210500
TAFMIV
TAF
KMIV 210533Z 2106/2206 31009KT P6SM SKC
     FM211300 31013G25KT P6SM SKC
     FM211800 30011G18KT P6SM SKC
     FM212100 29009KT P6SM SKC
     FM220000 VRB03KT P6SM SKC=



000
FTUS41 KPHI 210500
TAFRDG
TAF
KRDG 210533Z 2106/2206 29008KT P6SM SKC
     FM211400 29012G23KT P6SM SCT050
     FM211800 30010G17KT P6SM FEW050
     FM212100 29008KT P6SM SKC
     FM220100 VRB02KT P6SM SKC=



000
FTUS41 KPHI 210500
TAFPNE
TAF
KPNE 210533Z 2106/2206 31008KT P6SM SKC
     FM211300 31013G24KT P6SM SKC
     FM211800 31011G18KT P6SM SKC
     FM212100 30009KT P6SM SKC
     FM220100 VRB03KT P6SM SKC=



000
FTUS41 KPHI 210400 AAA
TAFPHL
TAF AMD
KPHL 210438Z 2105/2206 31012G22KT P6SM SKC
     FM211400 29015G25KT P6SM FEW050
     FM212100 29010KT P6SM SKC
     FM220300 29004KT P6SM SKC=



000
FTUS41 KPHI 202300
TAFRDG
TAF
KRDG 202329Z 2100/2124 29010KT P6SM FEW050
     FM211400 30012G22KT P6SM SCT050
     FM212100 29008KT P6SM SKC=



000
FTUS41 KPHI 202300
TAFACY
TAF
KACY 202329Z 2100/2124 29010KT P6SM SKC
     FM211400 30015G25KT P6SM FEW050
     FM212100 30010KT P6SM SKC=



000
FTUS41 KPHI 202300
TAFMIV
TAF
KMIV 202329Z 2100/2124 29008KT P6SM SKC
     FM211400 30012G22KT P6SM FEW050
     FM212100 30008KT P6SM SKC=



000
FTUS41 KPHI 202300
TAFABE
TAF
KABE 202329Z 2100/2124 28010KT P6SM FEW050
     FM211400 29010G20KT P6SM SCT050
     FM212100 28008KT P6SM SKC=



000
FTUS41 KPHI 202300
TAFTTN
TAF
KTTN 202329Z 2100/2124 29010KT P6SM SKC
     FM211400 29012G22KT P6SM FEW050
     FM212100 29008KT P6SM SKC=



000
FTUS41 KPHI 202300
TAFPHL
TAF
KPHL 202329Z 2100/2206 28012KT P6SM SKC
     FM211400 29014G24KT P6SM FEW050
     FM212100 29010KT P6SM SKC
     FM220300 29004KT P6SM SKC=



000
FTUS41 KPHI 202300
TAFPNE
TAF
KPNE 202329Z 2100/2124 29010KT P6SM SKC
     FM211400 29014G24KT P6SM FEW050
     FM212100 29008KT P6SM SKC=



000
FTUS41 KPHI 202300
TAFILG
TAF
KILG 202329Z 2100/2124 28010KT P6SM SKC
     FM211400 29014G24KT P6SM FEW050
     FM212100 29010KT P6SM SKC=



000
FTUS41 KPHI 202200 AAB
TAFPHL
TAF AMD
KPHL 202201Z 2022/2124 29010KT P6SM SKC
     FM211600 30012G25KT P6SM SCT050
     FM212200 30010KT P6SM FEW050=



000
FTUS41 KPHI 202000 AAA
TAFPHL
TAF AMD
KPHL 202053Z 2021/2124 28012G19KT P6SM SCT050
     FM202300 29012KT P6SM SKC
     FM211600 30012G25KT P6SM SCT050
     FM212200 30010KT P6SM FEW050=



000
FTUS41 KPHI 201700
TAFACY
TAF
KACY 201732Z 2018/2118 26012G22KT P6SM SCT060
     FM202200 28010KT P6SM SCT040
     FM211600 30012G25KT P6SM FEW050=



000
FTUS41 KPHI 201700
TAFILG
TAF
KILG 201732Z 2018/2118 26012G22KT P6SM SCT060
     FM202200 28010KT P6SM SCT040
     FM211600 30012G25KT P6SM SCT050=



000
FTUS41 KPHI 201700
TAFPHL
TAF
KPHL 201732Z 2018/2124 25012G25KT P6SM SCT060
     FM202200 28012KT P6SM SCT050
     FM211600 30012G25KT P6SM SCT050
     FM212200 30010KT P6SM FEW050=



000
FTUS41 KPHI 201700
TAFABE
TAF
KABE 201732Z 2018/2118 25012G22KT P6SM SCT050
     FM202200 28010KT P6SM SCT040
     FM211600 30012G22KT P6SM SCT050=



000
FTUS41 KPHI 201700
TAFRDG
TAF
KRDG 201732Z 2018/2118 27012G22KT P6SM SCT050
     FM202200 28010KT P6SM SCT040
     FM211600 30012G22KT P6SM SCT050=



000
FTUS41 KPHI 201700
TAFMIV
TAF
KMIV 201732Z 2018/2118 26012G20KT P6SM SCT060
     FM202200 28010KT P6SM SCT040
     FM211600 30012G22KT P6SM FEW050=



000
FTUS41 KPHI 201700
TAFPNE
TAF
KPNE 201732Z 2018/2118 26012G22KT P6SM SCT060
     FM202200 28010KT P6SM SCT040
     FM211600 30012G25KT P6SM SCT050=



000
FTUS41 KPHI 201700
TAFTTN
TAF
KTTN 201732Z 2018/2118 26012G25KT P6SM SCT060
     FM202200 28010KT P6SM SCT040
     FM211600 30012G25KT P6SM SCT050=



    US Dept of Commerce
    National Oceanic and Atmospheric Administration
    National Weather Service
    1325 East West Highway
    Silver Spring, MD 20910
    Page Author: NWS Internet Services Team
Disclaimer
Information Quality
Credits
Glossary
Privacy Policy
Freedom of Information Act (FOIA)
About Us
Career Opportunities